createdAt,value
2023-02-13T00:02:18.569Z,0.26
2023-02-13T00:07:20.489Z,0.31
2023-02-13T00:12:22.152Z,0.13
2023-02-13T00:17:25.055Z,0.06
2023-02-13T00:22:26.669Z,0.13
2023-02-13T00:27:28.222Z,0.14
2023-02-13T00:32:31.168Z,0.15
2023-02-13T00:37:33.519Z,-0.08
2023-02-13T00:42:35.120Z,0.29
2023-02-13T00:47:37.988Z,0.32
2023-02-13T00:52:39.545Z,0.33
2023-02-13T00:57:41.102Z,-0.01
2023-02-13T01:02:44.018Z,-0.05
2023-02-13T01:07:46.616Z,0.21
2023-02-13T01:12:51.335Z,0.07
2023-02-13T01:17:54.846Z,-0.09
2023-02-13T01:22:57.635Z,-0.07
2023-02-13T01:27:59.284Z,0.02
2023-02-13T01:33:02.256Z,0.46
2023-02-13T01:38:03.742Z,0.34
2023-02-13T01:43:09.626Z,1.21
2023-02-13T01:48:15.555Z,1.01
2023-02-13T01:53:21.386Z,1.00
2023-02-13T01:58:26.950Z,0.79
2023-02-13T02:03:35.532Z,0.93
2023-02-13T02:08:37.368Z,1.29
2023-02-13T02:13:39.274Z,1.19
2023-02-13T02:18:42.184Z,0.52
2023-02-13T02:24:28.373Z,1.01
2023-02-13T02:30:18.588Z,1.26
2023-02-13T02:35:31.292Z,1.08
2023-02-13T02:40:42.631Z,1.41
2023-02-13T02:45:52.510Z,1.27
2023-02-13T02:51:02.743Z,1.38
2023-02-13T02:56:12.607Z,1.61
2023-02-13T03:01:18.268Z,1.70
2023-02-13T03:06:26.343Z,1.33
2023-02-13T03:11:28.113Z,1.26
2023-02-13T03:16:30.031Z,1.60
2023-02-13T03:21:45.047Z,1.75
2023-02-13T03:26:59.582Z,1.63
2023-02-13T03:32:10.390Z,1.66
2023-02-13T03:37:15.945Z,1.44
2023-02-13T03:42:25.753Z,0.75
2023-02-13T03:47:27.491Z,0.78
2023-02-13T03:52:36.168Z,0.52
2023-02-13T03:57:40.810Z,0.15
2023-02-13T04:02:51.775Z,0.30
2023-02-13T04:07:54.746Z,0.50
2023-02-13T04:13:03.611Z,0.28
2023-02-13T04:18:11.468Z,0.14
2023-02-13T04:23:15.316Z,0.10
2023-02-13T04:28:17.050Z,0.21
2023-02-13T04:33:18.726Z,0.61
2023-02-13T04:38:21.571Z,0.45
2023-02-13T04:43:23.168Z,0.79
2023-02-13T04:48:24.735Z,0.77
2023-02-13T04:53:27.803Z,0.92
2023-02-13T04:58:29.422Z,0.86
2023-02-13T05:03:30.989Z,0.92
2023-02-13T05:08:34.088Z,1.06
2023-02-13T05:13:38.190Z,0.92
2023-02-13T05:18:39.768Z,0.93
2023-02-13T05:23:42.745Z,0.92
2023-02-13T05:28:44.324Z,1.06
2023-02-13T05:33:45.901Z,0.77
2023-02-13T05:38:48.871Z,0.84
2023-02-13T05:43:50.409Z,0.57
2023-02-13T05:48:52.276Z,0.52
2023-02-13T05:53:55.186Z,0.68
2023-02-13T05:58:57.464Z,0.79
2023-02-13T06:04:00.483Z,0.88
2023-02-13T06:09:05.165Z,0.68
2023-02-13T06:14:06.789Z,0.42
2023-02-13T06:19:08.436Z,0.49
2023-02-13T06:24:11.364Z,0.69
2023-02-13T06:29:12.856Z,0.60
2023-02-13T06:34:14.487Z,0.29
2023-02-13T06:39:17.354Z,0.55
2023-02-13T06:44:18.944Z,0.41
2023-02-13T06:49:20.517Z,0.17
2023-02-13T06:54:33.919Z,0.14
2023-02-13T06:59:43.095Z,0.26
2023-02-13T07:04:44.663Z,0.55
2023-02-13T07:09:47.624Z,0.76
2023-02-13T07:14:49.114Z,0.56
2023-02-13T07:19:50.624Z,0.49
2023-02-13T07:24:53.532Z,0.47
2023-02-13T07:29:55.502Z,0.47
2023-02-13T07:35:02.058Z,0.52
2023-02-13T07:40:07.181Z,0.94
2023-02-13T07:45:09.625Z,0.74
2023-02-13T07:50:12.112Z,0.72
2023-02-13T07:55:15.083Z,0.68
2023-02-13T08:00:18.453Z,0.68
2023-02-13T08:05:20.046Z,0.86
2023-02-13T08:10:28.934Z,0.47
2023-02-13T08:15:30.653Z,0.43
2023-02-13T08:20:32.703Z,0.32
2023-02-13T08:25:37.167Z,0.39
2023-02-13T08:30:38.771Z,0.55
2023-02-13T08:35:40.393Z,0.68
2023-02-13T08:40:43.449Z,0.51
2023-02-13T08:45:45.157Z,0.32
2023-02-13T08:50:46.739Z,0.55
2023-02-13T08:55:53.624Z,0.77
2023-02-13T09:00:55.285Z,0.64
2023-02-13T09:05:59.394Z,0.85
2023-02-13T09:11:04.300Z,0.85
2023-02-13T09:16:08.218Z,0.36
2023-02-13T09:21:12.618Z,0.73
2023-02-13T09:26:16.168Z,0.68
2023-02-13T09:31:19.615Z,0.57
2023-02-13T09:36:23.476Z,0.85
2023-02-13T09:41:29.427Z,0.80
2023-02-13T09:46:34.287Z,0.65
2023-02-13T09:51:35.986Z,0.74
2023-02-13T09:56:51.834Z,0.74
2023-02-13T10:02:02.907Z,1.17
2023-02-13T10:07:18.494Z,0.74
2023-02-13T10:12:37.767Z,1.05
2023-02-13T10:17:42.785Z,1.13
2023-02-13T10:22:51.112Z,1.01
2023-02-13T10:27:58.509Z,0.89
2023-02-13T10:33:05.696Z,0.98
2023-02-13T10:38:16.197Z,1.35
2023-02-13T10:43:21.118Z,1.27
2023-02-13T10:48:44.857Z,0.76
2023-02-13T10:54:02.889Z,0.80
2023-02-13T10:59:27.375Z,1.14
2023-02-13T11:04:30.249Z,0.86
2023-02-13T11:09:38.044Z,1.48
2023-02-13T11:14:54.291Z,0.98
2023-02-13T11:19:57.960Z,1.44
2023-02-13T11:25:03.284Z,1.49
2023-02-13T11:30:31.143Z,1.23
2023-02-13T11:35:34.404Z,1.56
2023-02-13T11:40:37.315Z,1.81
2023-02-13T11:45:40.304Z,1.64
2023-02-13T11:50:42.522Z,1.98
2023-02-13T11:55:45.989Z,1.74
2023-02-13T12:00:49.158Z,1.80
2023-02-13T12:06:01.417Z,2.00
2023-02-13T12:11:07.577Z,1.96
2023-02-13T12:16:29.976Z,2.30
2023-02-13T12:21:49.515Z,2.18
2023-02-13T12:26:58.361Z,2.34
2023-02-13T12:32:15.578Z,2.38
2023-02-13T12:37:32.533Z,2.44
2023-02-13T12:42:47.410Z,2.13
2023-02-13T12:48:03.875Z,2.05
2023-02-13T12:53:26.900Z,1.84
2023-02-13T12:58:48.237Z,2.08
2023-02-13T13:04:05.030Z,1.96
2023-02-13T13:09:23.300Z,2.01
2023-02-13T13:14:35.737Z,2.11
2023-02-13T13:19:45.190Z,2.08
2023-02-13T13:24:56.340Z,1.67
2023-02-13T13:30:02.985Z,1.67
2023-02-13T13:35:12.178Z,2.01
2023-02-13T13:40:29.226Z,1.74
2023-02-13T13:45:42.814Z,2.20
2023-02-13T13:50:46.264Z,2.40
2023-02-13T13:56:07.516Z,2.71
2023-02-13T14:01:27.315Z,2.60
2023-02-13T14:07:05.049Z,2.31
2023-02-13T14:12:37.094Z,2.42
2023-02-13T14:17:54.683Z,2.14
2023-02-13T14:23:07.235Z,1.98
2023-02-13T14:28:21.003Z,2.01
2023-02-13T14:33:27.324Z,1.55
2023-02-13T14:38:30.896Z,2.02
2023-02-13T14:43:47.702Z,1.60
2023-02-13T14:48:55.367Z,2.03
2023-02-13T14:54:01.416Z,1.65
2023-02-13T14:59:13.655Z,1.91
2023-02-13T15:04:25.831Z,1.69
2023-02-13T15:09:35.094Z,1.78
2023-02-13T15:14:37.176Z,1.70
2023-02-13T15:19:44.569Z,1.65
2023-02-13T15:24:49.498Z,1.25
2023-02-13T15:29:57.305Z,1.43
2023-02-13T15:34:59.692Z,1.72
2023-02-13T15:40:25.730Z,2.02
2023-02-13T15:45:29.418Z,1.99
2023-02-13T15:50:33.962Z,1.81
2023-02-13T15:55:36.918Z,1.59
2023-02-13T16:00:42.341Z,1.22
2023-02-13T16:05:46.855Z,1.58
2023-02-13T16:10:49.959Z,1.70
2023-02-13T16:15:51.566Z,1.82
2023-02-13T16:20:54.720Z,1.25
2023-02-13T16:26:03.724Z,1.52
2023-02-13T16:31:05.905Z,1.27
2023-02-13T16:36:18.587Z,1.37
2023-02-13T16:41:32.805Z,1.71
2023-02-13T16:46:36.872Z,1.53
2023-02-13T16:51:50.304Z,1.77
2023-02-13T16:56:54.850Z,1.72
2023-02-13T17:02:13.502Z,1.61
2023-02-13T17:07:20.223Z,1.44
2023-02-13T17:12:22.201Z,1.34
2023-02-13T17:17:23.832Z,1.10
2023-02-13T17:22:32.740Z,1.37
2023-02-13T17:27:34.781Z,1.21
2023-02-13T17:32:36.784Z,1.36
2023-02-13T17:37:40.864Z,1.75
2023-02-13T17:42:44.310Z,1.13
2023-02-13T17:47:46.448Z,1.47
2023-02-13T17:52:49.638Z,1.28
2023-02-13T17:57:53.125Z,1.55
2023-02-13T18:02:55.858Z,1.75
2023-02-13T18:07:58.776Z,1.67
2023-02-13T18:13:00.676Z,0.98
2023-02-13T18:18:02.314Z,1.61
2023-02-13T18:23:05.173Z,1.52
2023-02-13T18:28:06.725Z,1.03
2023-02-13T18:33:08.368Z,1.17
2023-02-13T18:38:11.252Z,1.53
2023-02-13T18:43:13.000Z,1.66
2023-02-13T18:48:14.565Z,1.43
2023-02-13T18:53:17.523Z,1.39
2023-02-13T18:58:19.072Z,1.34
2023-02-13T19:03:20.614Z,1.39
2023-02-13T19:08:23.482Z,1.83
2023-02-13T19:13:24.958Z,1.50
2023-02-13T19:18:26.544Z,1.66
2023-02-13T19:23:29.852Z,1.62
2023-02-13T19:28:31.424Z,1.58
2023-02-13T19:33:33.273Z,1.43
2023-02-13T19:38:36.607Z,1.50
2023-02-13T19:43:38.428Z,1.54
2023-02-13T19:48:40.106Z,1.76
2023-02-13T19:53:43.423Z,1.74
2023-02-13T19:58:44.947Z,1.71
2023-02-13T20:03:47.360Z,1.76
2023-02-13T20:08:50.831Z,1.26
2023-02-13T20:13:53.920Z,1.05
2023-02-13T20:18:55.422Z,1.46
2023-02-13T20:23:58.366Z,1.21
2023-02-13T20:29:00.439Z,1.24
2023-02-13T20:34:02.239Z,1.26
2023-02-13T20:39:06.855Z,1.19
2023-02-13T20:44:11.594Z,1.29
2023-02-13T20:49:13.123Z,1.41
2023-02-13T20:54:16.021Z,1.51
2023-02-13T20:59:17.516Z,1.46
2023-02-13T21:04:19.228Z,1.49
2023-02-13T21:09:22.213Z,1.36
2023-02-13T21:14:23.712Z,1.29
2023-02-13T21:19:25.325Z,1.56
2023-02-13T21:24:28.218Z,1.60
2023-02-13T21:29:29.852Z,1.25
2023-02-13T21:34:31.370Z,1.39
2023-02-13T21:39:34.308Z,1.69
2023-02-13T21:44:35.833Z,1.45
2023-02-13T21:49:37.412Z,1.72
2023-02-13T21:54:40.357Z,1.58
2023-02-13T21:59:41.888Z,1.30
2023-02-13T22:04:43.488Z,1.57
2023-02-13T22:09:46.414Z,1.13
2023-02-13T22:14:47.964Z,1.08
2023-02-13T22:19:49.535Z,1.07
2023-02-13T22:24:52.428Z,0.82
2023-02-13T22:29:53.990Z,0.82
2023-02-13T22:34:55.594Z,1.24
2023-02-13T22:39:58.493Z,1.06
2023-02-13T22:45:00.063Z,1.26
2023-02-13T22:50:01.645Z,1.35
2023-02-13T22:55:05.057Z,1.38
2023-02-13T23:00:09.663Z,1.19
2023-02-13T23:05:11.206Z,0.97
2023-02-13T23:10:14.132Z,1.24
2023-02-13T23:15:15.809Z,1.35
2023-02-13T23:20:18.164Z,1.41
2023-02-13T23:25:21.842Z,1.17
2023-02-13T23:30:24.363Z,1.45
2023-02-13T23:35:26.873Z,1.01
2023-02-13T23:40:29.892Z,1.35
2023-02-13T23:45:31.452Z,1.45
2023-02-13T23:50:33.136Z,1.17
2023-02-13T23:55:36.002Z,1.09
